RJFZ weather

Tsuiki Air Field
Tsuiki, Toyama Prefecture, Japan

Public forecast

Using degrees Celsius for public forecast. Weather courtesy of forecast.io.

METAR (pilot weather report)

Report is more than 6 hours old.

Retrieved 2011/10/05 20:30 UTC (8 years ago):

RJFZ 052030Z 25007KT 9999 FEW015 SCT045 17/16 Q1011 RMK 2CU015 3SC045 A2987

TAF (pilot weather forecast)

Closest forecast is Kitakyūshū Airport, 9.7 nm (17.9 km) N. Retrieved 2019/05/25 18:00 UTC (3 hours ago):

TAF RJFR 251705Z 2518/2700 06004KT 9999 FEW030 BECMG 2600/2602 11005KT BECMG 2606/2609 32005KT BECMG 2615/2618 12005KT